createdAt,value
2022-09-05T00:00:19.829Z,51313.03
2022-09-05T00:03:02.895Z,51356.78
2022-09-05T00:05:49.575Z,51322.97
2022-09-05T00:08:57.397Z,51330.94
2022-09-05T00:11:44.912Z,51332.91
2022-09-05T00:15:14.689Z,51321.00
2022-09-05T00:20:40.702Z,51328.94
2022-09-05T00:24:37.403Z,51332.91
2022-09-05T00:25:00.738Z,51324.97
2022-09-05T00:27:39.971Z,51346.84
2022-09-05T00:31:06.831Z,51291.16
2022-09-05T00:33:48.754Z,51321.00
2022-09-05T00:36:54.837Z,51322.97
2022-09-05T00:39:27.674Z,51317.00
2022-09-05T00:41:59.625Z,51315.03
2022-09-05T00:44:33.854Z,51309.06
2022-09-05T00:47:05.960Z,51342.84
2022-09-05T00:50:00.002Z,51334.91
2022-09-05T00:52:54.110Z,51324.97
2022-09-05T00:55:59.411Z,51326.94
2022-09-05T00:59:33.391Z,51317.00
2022-09-05T01:02:26.326Z,51330.94
2022-09-05T01:05:26.447Z,51321.00
2022-09-05T01:08:20.739Z,51348.81
2022-09-05T01:11:09.916Z,51360.75
2022-09-05T01:14:24.128Z,51344.84
2022-09-05T01:17:11.398Z,51334.91
2022-09-05T01:22:46.259Z,51311.06
2022-09-05T01:25:18.779Z,51303.09
2022-09-05T01:28:30.959Z,51317.00
2022-09-05T01:30:57.944Z,51313.03
2022-09-05T01:34:00.821Z,51354.78
2022-09-05T01:36:58.433Z,51297.13
2022-09-05T01:40:12.374Z,51315.03
2022-09-05T01:43:09.806Z,51326.94
2022-09-05T01:45:51.786Z,51315.03
2022-09-05T01:48:47.777Z,51348.81
2022-09-05T01:51:36.672Z,51326.94
2022-09-05T01:54:29.907Z,51332.91
2022-09-05T01:57:11.486Z,51315.03
2022-09-05T02:00:17.807Z,51324.97
2022-09-05T02:03:19.368Z,51293.16
2022-09-05T02:06:34.297Z,51309.06
2022-09-05T02:09:40.188Z,51326.94
2022-09-05T02:12:16.189Z,51315.03
2022-09-05T02:15:05.102Z,51321.00
2022-09-05T02:17:50.897Z,51315.03
2022-09-05T02:20:32.008Z,51356.78
2022-09-05T02:23:41.924Z,51332.91
2022-09-05T02:26:24.543Z,51336.91
2022-09-05T02:29:29.158Z,51328.94
2022-09-05T02:32:36.207Z,51328.94
2022-09-05T02:35:13.725Z,51332.91
2022-09-05T02:40:06.183Z,51321.00
2022-09-05T02:45:09.927Z,51326.94
2022-09-05T02:45:11.607Z,51309.06
2022-09-05T02:47:40.978Z,51322.97
2022-09-05T02:53:59.162Z,51336.91
2022-09-05T02:57:18.918Z,51352.78
2022-09-05T02:57:40.977Z,51324.97
2022-09-05T02:59:46.030Z,51317.00
2022-09-05T03:02:26.391Z,51328.94
2022-09-05T03:05:28.546Z,51332.91
2022-09-05T03:08:55.441Z,51295.16
2022-09-05T03:11:51.492Z,51328.94
2022-09-05T03:14:30.628Z,51334.91
2022-09-05T03:17:19.108Z,51317.00
2022-09-05T03:20:18.004Z,51321.00
2022-09-05T03:23:45.926Z,51321.00
2022-09-05T03:26:33.845Z,51338.88
2022-09-05T03:29:58.618Z,51321.00
2022-09-05T03:33:05.945Z,51315.03
2022-09-05T03:35:36.086Z,51330.94
2022-09-05T03:38:47.226Z,51289.19
2022-09-05T03:41:42.098Z,51330.94
2022-09-05T03:44:32.741Z,51313.03
2022-09-05T03:47:38.128Z,51322.97
2022-09-05T03:57:05.025Z,51297.13
2022-09-05T03:57:16.930Z,51319.00
2022-09-05T03:57:37.064Z,51328.94
2022-09-05T04:00:22.503Z,51309.06
2022-09-05T04:08:11.460Z,51322.97
2022-09-05T04:08:28.344Z,51319.00
2022-09-05T04:09:51.513Z,51322.97
2022-09-05T04:12:46.168Z,51297.13
2022-09-05T04:15:47.010Z,51324.97
2022-09-05T04:18:32.615Z,51309.06
2022-09-05T04:21:22.375Z,51336.91
2022-09-05T04:24:04.480Z,51338.88
2022-09-05T04:26:56.203Z,51317.00
2022-09-05T04:30:00.214Z,51279.25
2022-09-05T04:33:04.544Z,51321.00
2022-09-05T04:35:40.809Z,51326.94
2022-09-05T04:38:16.934Z,51350.81
2022-09-05T04:41:09.865Z,51324.97
2022-09-05T04:44:04.895Z,51336.91
2022-09-05T04:46:54.880Z,51330.94
2022-09-05T04:49:33.587Z,51322.97
2022-09-05T04:52:25.322Z,51336.91
2022-09-05T04:55:14.133Z,51319.00
2022-09-05T04:58:07.314Z,51346.84
2022-09-05T05:06:03.586Z,51328.94
2022-09-05T05:06:13.105Z,51342.84
2022-09-05T05:06:45.651Z,51321.00
2022-09-05T05:09:24.422Z,51324.97
2022-09-05T05:17:54.474Z,51356.78
2022-09-05T05:18:15.633Z,51344.84
2022-09-05T05:21:30.690Z,51338.88
2022-09-05T05:24:07.765Z,51332.91
2022-09-05T05:27:13.052Z,51346.84
2022-09-05T05:29:46.144Z,51336.91
2022-09-05T05:32:31.615Z,51344.84
2022-09-05T05:35:21.013Z,51372.69
2022-09-05T05:38:16.447Z,51350.81
2022-09-05T05:40:52.116Z,51356.78
2022-09-05T05:43:32.842Z,51382.63
2022-09-05T05:46:00.941Z,51352.78
2022-09-05T05:48:40.616Z,51360.75
2022-09-05T05:52:00.958Z,51342.84
2022-09-05T05:55:37.551Z,51344.84
2022-09-05T05:58:01.755Z,51368.69
2022-09-05T06:01:09.409Z,51366.72
2022-09-05T06:04:43.328Z,51384.59
2022-09-05T06:09:30.459Z,51372.69
2022-09-05T06:14:56.697Z,51418.41
2022-09-05T06:15:08.729Z,51390.56
2022-09-05T06:17:39.258Z,51388.59
2022-09-05T06:22:08.485Z,51404.50
2022-09-05T06:24:26.428Z,51420.41
2022-09-05T06:27:57.998Z,51426.34
2022-09-05T06:30:25.671Z,51414.44
2022-09-05T06:33:17.036Z,51430.34
2022-09-05T06:36:07.296Z,51454.19
2022-09-05T06:39:06.352Z,51420.41
2022-09-05T06:42:01.548Z,51446.25
2022-09-05T06:45:00.279Z,51456.19
2022-09-05T06:47:48.080Z,51450.22
2022-09-05T06:51:07.141Z,51440.28
2022-09-05T06:54:04.422Z,51458.16
2022-09-05T06:57:08.435Z,51466.13
2022-09-05T07:00:26.051Z,51444.25
2022-09-05T07:03:20.911Z,51472.09
2022-09-05T07:06:20.792Z,51484.00
2022-09-05T07:09:08.425Z,51464.13
2022-09-05T07:12:18.329Z,51472.09
2022-09-05T07:15:12.802Z,51458.16
2022-09-05T07:18:11.143Z,51466.13
2022-09-05T07:21:26.338Z,51491.97
2022-09-05T07:24:11.034Z,51478.03
2022-09-05T07:26:53.820Z,51491.97
2022-09-05T07:29:57.857Z,51521.78
2022-09-05T07:32:32.375Z,51521.78
2022-09-05T07:35:03.255Z,51529.75
2022-09-05T07:37:43.289Z,51515.81
2022-09-05T07:40:25.814Z,51495.94
2022-09-05T07:43:09.219Z,51525.75
2022-09-05T07:45:50.817Z,51525.75
2022-09-05T07:48:34.424Z,51527.75
2022-09-05T07:56:47.953Z,51553.59
2022-09-05T07:57:00.801Z,51553.59
2022-09-05T07:59:58.597Z,51571.50
2022-09-05T08:02:25.807Z,51545.66
2022-09-05T08:05:02.514Z,51537.69
2022-09-05T08:07:49.388Z,51555.59
2022-09-05T08:11:21.960Z,51543.66
2022-09-05T08:13:29.480Z,51553.59
2022-09-05T08:16:13.008Z,51523.78
2022-09-05T08:19:31.250Z,51519.81
2022-09-05T08:22:01.091Z,51557.56
2022-09-05T08:24:38.171Z,51551.63
2022-09-05T08:27:24.616Z,51555.59
2022-09-05T08:30:27.470Z,51571.50
2022-09-05T08:33:21.011Z,51583.41
2022-09-05T08:36:00.815Z,51609.28
2022-09-05T08:38:34.502Z,51585.41
2022-09-05T08:41:49.504Z,51593.38
2022-09-05T08:46:45.726Z,51553.59
2022-09-05T08:47:45.275Z,51599.31
2022-09-05T08:50:28.112Z,51587.41
2022-09-05T08:53:46.521Z,51615.22
2022-09-05T08:56:31.228Z,51599.31
2022-09-05T08:59:37.963Z,51605.28
2022-09-05T09:02:53.168Z,51619.22
2022-09-05T09:06:12.347Z,51607.28
2022-09-05T09:08:50.697Z,51647.03
2022-09-05T09:11:37.500Z,51623.19
2022-09-05T09:14:44.691Z,51645.06
2022-09-05T09:17:20.647Z,51651.03
2022-09-05T09:19:53.078Z,51645.06
2022-09-05T09:23:08.394Z,51643.06
2022-09-05T09:26:17.794Z,51655.00
2022-09-05T09:28:56.351Z,51647.03
2022-09-05T09:31:57.648Z,51635.13
2022-09-05T09:34:31.796Z,51639.09
2022-09-05T09:37:50.819Z,51615.22
2022-09-05T09:40:39.937Z,51641.09
2022-09-05T09:43:27.853Z,51645.06
2022-09-05T09:46:34.142Z,51639.09
2022-09-05T09:49:32.124Z,51664.94
2022-09-05T09:52:21.164Z,51662.94
2022-09-05T09:55:41.068Z,51668.91
2022-09-05T09:58:49.517Z,51643.06
2022-09-05T10:01:53.586Z,51680.84
2022-09-05T10:10:37.981Z,51660.97
2022-09-05T10:10:51.624Z,51682.84
2022-09-05T10:14:49.757Z,51714.66
2022-09-05T10:17:47.089Z,51706.69
2022-09-05T10:20:44.736Z,51726.56
2022-09-05T10:24:16.665Z,51718.63
2022-09-05T10:27:39.521Z,51712.66
2022-09-05T10:31:55.550Z,51696.75
2022-09-05T10:35:09.385Z,51720.59
2022-09-05T10:36:40.663Z,51740.50
2022-09-05T10:39:25.798Z,51750.44
2022-09-05T10:42:06.960Z,51712.66
2022-09-05T10:45:14.882Z,51728.56
2022-09-05T10:48:22.076Z,51742.47
2022-09-05T10:51:27.138Z,51760.38
2022-09-05T10:54:20.121Z,51754.41
2022-09-05T10:57:12.096Z,51778.28
2022-09-05T11:02:18.800Z,51847.88
2022-09-05T11:03:24.881Z,51824.00
2022-09-05T11:05:59.719Z,51837.91
2022-09-05T11:09:17.716Z,51802.13
2022-09-05T11:11:55.794Z,51839.91
2022-09-05T11:14:51.372Z,51784.22
2022-09-05T11:17:30.678Z,51786.22
2022-09-05T11:20:51.817Z,51806.09
2022-09-05T11:23:40.743Z,51849.84
2022-09-05T11:26:44.523Z,51849.84
2022-09-05T11:29:24.657Z,51804.13
2022-09-05T11:34:00.185Z,51798.16
2022-09-05T11:39:45.935Z,51798.16
2022-09-05T11:40:03.625Z,51778.28
2022-09-05T11:42:04.687Z,51800.16
2022-09-05T11:44:56.845Z,51774.28
2022-09-05T11:48:10.230Z,51784.22
2022-09-05T11:51:06.753Z,51786.22
2022-09-05T11:53:57.446Z,51772.31
2022-09-05T11:56:42.631Z,51778.28
2022-09-05T11:59:44.975Z,51778.28
2022-09-05T12:02:37.825Z,51790.19
2022-09-05T12:05:50.166Z,51812.06
2022-09-05T12:08:53.052Z,51794.19
2022-09-05T12:11:55.147Z,51800.16
2022-09-05T12:14:57.264Z,51788.22
2022-09-05T12:18:28.760Z,51764.34
2022-09-05T12:21:57.238Z,51788.22
2022-09-05T12:25:24.283Z,51786.22
2022-09-05T12:28:15.244Z,51794.19
2022-09-05T12:30:55.033Z,51849.84
2022-09-05T12:36:04.557Z,51969.16
2022-09-05T12:40:40.588Z,52162.03
2022-09-05T12:41:32.477Z,52255.50
2022-09-05T12:44:40.226Z,52249.53
2022-09-05T12:45:47.699Z,52412.59
2022-09-05T12:48:39.148Z,52418.56
2022-09-05T12:51:45.204Z,52500.09
2022-09-05T12:54:29.887Z,52565.75
2022-09-05T13:00:58.521Z,52339.03
2022-09-05T13:03:05.333Z,52191.88
2022-09-05T13:03:31.951Z,52297.25
2022-09-05T13:06:24.989Z,52442.44
2022-09-05T13:11:05.101Z,52416.59
2022-09-05T13:14:57.340Z,52221.69
2022-09-05T13:15:51.247Z,52006.94
2022-09-05T13:18:24.107Z,51937.34
2022-09-05T13:21:08.465Z,51943.31
2022-09-05T13:24:05.235Z,51909.50
2022-09-05T13:26:57.795Z,51873.72
2022-09-05T13:29:53.847Z,51899.56
2022-09-05T13:38:00.413Z,51843.88
2022-09-05T13:38:05.479Z,51871.72
2022-09-05T13:38:52.469Z,51895.59
2022-09-05T13:41:37.168Z,51873.72
2022-09-05T13:44:27.900Z,51901.56
2022-09-05T13:47:14.781Z,51895.59
2022-09-05T13:50:26.685Z,51903.53
2022-09-05T13:53:28.408Z,51907.50
2022-09-05T13:56:28.295Z,51923.41
2022-09-05T13:59:09.685Z,51979.09
2022-09-05T14:02:25.626Z,52024.84
2022-09-05T14:05:08.324Z,52048.69
2022-09-05T14:08:36.234Z,52124.25
2022-09-05T14:11:21.465Z,52166.00
2022-09-05T14:15:08.094Z,52380.78
2022-09-05T14:20:29.443Z,52305.22
2022-09-05T14:23:09.525Z,52629.38
2022-09-05T14:25:46.296Z,53029.16
2022-09-05T14:28:36.470Z,53265.88
2022-09-05T14:33:48.061Z,53333.50
2022-09-05T14:37:42.575Z,53393.16
2022-09-05T14:38:01.656Z,53709.47
2022-09-05T14:40:53.256Z,53705.50
2022-09-05T14:44:01.634Z,53440.91
2022-09-05T14:47:35.211Z,52965.50
2022-09-05T14:50:37.841Z,52758.66
2022-09-05T14:57:04.148Z,52535.91
2022-09-05T15:02:49.281Z,52657.22
2022-09-05T15:02:49.755Z,52989.38
2022-09-05T15:05:28.712Z,53118.66
2022-09-05T15:08:53.758Z,53349.41
2022-09-05T15:12:21.380Z,53363.34
2022-09-05T15:14:19.463Z,53293.72
2022-09-05T15:17:05.718Z,53297.69
2022-09-05T15:20:08.413Z,53484.69
2022-09-05T15:22:43.718Z,53462.78
2022-09-05T15:25:17.949Z,53516.50
2022-09-05T15:27:47.271Z,53584.16
2022-09-05T15:30:22.716Z,53534.41
2022-09-05T15:33:25.249Z,53578.19
2022-09-05T15:35:53.623Z,53542.38
2022-09-05T15:38:55.456Z,53413.06
2022-09-05T15:41:29.416Z,53226.06
2022-09-05T15:44:10.151Z,53142.53
2022-09-05T15:47:01.757Z,53041.09
2022-09-05T15:49:39.973Z,53112.69
2022-09-05T15:52:16.357Z,53188.28
2022-09-05T15:55:10.715Z,53148.50
2022-09-05T15:57:53.898Z,52997.34
2022-09-05T16:00:34.718Z,52931.69
2022-09-05T16:05:08.926Z,52822.31
2022-09-05T16:10:30.050Z,52784.50
2022-09-05T16:10:48.233Z,52812.34
2022-09-05T16:16:51.393Z,52629.38
2022-09-05T16:23:13.819Z,52561.75
2022-09-05T16:23:31.193Z,52396.69
2022-09-05T16:24:59.908Z,52339.03
2022-09-05T16:27:43.840Z,52156.06
2022-09-05T16:30:23.443Z,52016.88
2022-09-05T16:32:57.931Z,51911.50
2022-09-05T16:35:28.638Z,51833.94
2022-09-05T16:38:52.753Z,51762.38
2022-09-05T16:41:41.840Z,51752.41
2022-09-05T16:44:24.034Z,51698.75
2022-09-05T16:47:12.024Z,51702.72
2022-09-05T16:49:49.449Z,51680.84
2022-09-05T16:52:32.666Z,51690.78
2022-09-05T16:55:37.054Z,51682.84
2022-09-05T16:58:19.586Z,51651.03
2022-09-05T17:01:05.263Z,51655.00
2022-09-05T17:03:56.903Z,51668.91
2022-09-05T17:07:04.465Z,51668.91
2022-09-05T17:09:43.208Z,51639.09
2022-09-05T17:12:26.146Z,51653.00
2022-09-05T17:15:02.136Z,51613.25
2022-09-05T17:18:19.667Z,51629.16
2022-09-05T17:20:37.090Z,51597.34
2022-09-05T17:29:15.722Z,51660.97
2022-09-05T17:29:42.213Z,51573.47
2022-09-05T17:32:50.820Z,51579.44
2022-09-05T17:35:42.776Z,51573.47
2022-09-05T17:38:55.461Z,51579.44
2022-09-05T17:41:58.496Z,51569.50
2022-09-05T17:45:13.989Z,51567.50
2022-09-05T17:47:57.599Z,51575.47
2022-09-05T17:50:33.150Z,51541.66
2022-09-05T17:53:25.841Z,51557.56
2022-09-05T17:55:52.183Z,51527.75
2022-09-05T17:58:49.039Z,51541.66
2022-09-05T18:01:28.885Z,51517.81
2022-09-05T18:04:16.475Z,51555.59
2022-09-05T18:06:58.909Z,51539.69
2022-09-05T18:09:40.125Z,51501.91
2022-09-05T18:13:13.158Z,51539.69
2022-09-05T18:15:39.934Z,51509.84
2022-09-05T18:21:21.105Z,51565.53
2022-09-05T18:23:58.639Z,51497.94
2022-09-05T18:26:28.129Z,51523.78
2022-09-05T18:29:58.067Z,51515.81
2022-09-05T18:32:12.545Z,51511.84
2022-09-05T18:34:41.862Z,51523.78
2022-09-05T18:37:37.859Z,51491.97
2022-09-05T18:40:08.965Z,51488.00
2022-09-05T18:42:47.185Z,51529.75
2022-09-05T18:45:17.840Z,51503.91
2022-09-05T18:48:00.228Z,51493.94
2022-09-05T18:50:40.415Z,51493.94
2022-09-05T18:53:12.866Z,51488.00
2022-09-05T18:56:20.163Z,51493.94
2022-09-05T18:59:10.277Z,51488.00
2022-09-05T19:02:40.375Z,51488.00
2022-09-05T19:05:11.565Z,51509.84
2022-09-05T19:07:48.803Z,51476.06
2022-09-05T19:10:35.731Z,51489.97
2022-09-05T19:13:26.392Z,51488.00
2022-09-05T19:16:43.875Z,51482.03
2022-09-05T19:19:20.665Z,51488.00
2022-09-05T19:22:49.950Z,51468.09
2022-09-05T19:24:46.394Z,51486.00
2022-09-05T19:28:26.332Z,51497.94
2022-09-05T19:36:45.465Z,51491.97
2022-09-05T19:36:56.450Z,51491.97
2022-09-05T19:37:03.966Z,51464.13
2022-09-05T19:40:56.212Z,51476.06
2022-09-05T19:47:27.951Z,51488.00
2022-09-05T19:47:46.499Z,51440.28
2022-09-05T19:50:24.831Z,51464.13
2022-09-05T19:53:06.513Z,51460.16
2022-09-05T19:55:37.344Z,51434.31
2022-09-05T19:58:29.481Z,51478.03
2022-09-05T20:01:08.435Z,51452.19
2022-09-05T20:03:43.255Z,51478.03
2022-09-05T20:06:28.802Z,51446.25
2022-09-05T20:09:19.561Z,51434.31
2022-09-05T20:11:53.846Z,51456.19
2022-09-05T20:14:31.070Z,51456.19
2022-09-05T20:17:21.136Z,51444.25
2022-09-05T20:19:49.287Z,51432.31
2022-09-05T20:22:47.398Z,51464.13
2022-09-05T20:25:36.675Z,51442.25
2022-09-05T20:28:15.610Z,51448.22
2022-09-05T20:31:27.158Z,51458.16
2022-09-05T20:34:24.618Z,51446.25
2022-09-05T20:43:16.950Z,51426.34
2022-09-05T20:43:31.288Z,51448.22
2022-09-05T20:43:31.364Z,51436.28
2022-09-05T20:46:40.331Z,51424.38
2022-09-05T20:54:09.930Z,51468.09
2022-09-05T20:54:26.711Z,51416.41
2022-09-05T20:54:43.953Z,51448.22
2022-09-05T20:57:18.009Z,51434.31
2022-09-05T20:59:47.297Z,51430.34
2022-09-05T21:02:27.991Z,51408.47
2022-09-05T21:05:20.598Z,51452.19
2022-09-05T21:08:07.085Z,51452.19
2022-09-05T21:10:55.916Z,51448.22
2022-09-05T21:13:37.599Z,51456.19
2022-09-05T21:16:22.781Z,51416.41
2022-09-05T21:18:51.921Z,51426.34
2022-09-05T21:21:29.751Z,51448.22
2022-09-05T21:24:18.082Z,51436.28
2022-09-05T21:26:50.127Z,51444.25
2022-09-05T21:29:33.346Z,51414.44
2022-09-05T21:32:03.935Z,51418.41
2022-09-05T21:34:46.394Z,51442.25
2022-09-05T21:37:16.282Z,51440.28
2022-09-05T21:40:00.184Z,51418.41
2022-09-05T21:47:33.048Z,51406.47
2022-09-05T21:47:37.584Z,51420.41
2022-09-05T21:48:15.266Z,51408.47
2022-09-05T21:50:49.641Z,51436.28
2022-09-05T21:55:09.335Z,51412.44
2022-09-05T21:59:18.011Z,51432.31
2022-09-05T22:02:08.908Z,51432.31
2022-09-05T22:04:40.075Z,51420.41
2022-09-05T22:07:14.483Z,51436.28
2022-09-05T22:09:41.959Z,51436.28
2022-09-05T22:12:29.822Z,51408.47
2022-09-05T22:15:26.246Z,51434.31
2022-09-05T22:17:51.107Z,51418.41
2022-09-05T22:20:22.307Z,51426.34
2022-09-05T22:22:56.382Z,51440.28
2022-09-05T22:25:30.863Z,51418.41
2022-09-05T22:28:19.451Z,51436.28
2022-09-05T22:30:46.643Z,51422.38
2022-09-05T22:33:14.028Z,51406.47
2022-09-05T22:35:41.883Z,51418.41
2022-09-05T22:38:15.326Z,51400.50
2022-09-05T22:40:46.565Z,51400.50
2022-09-05T22:43:16.555Z,51414.44
2022-09-05T22:45:43.737Z,51444.25
2022-09-05T22:48:14.002Z,51422.38
2022-09-05T22:50:42.634Z,51416.41
2022-09-05T22:53:10.591Z,51416.41
2022-09-05T22:55:41.924Z,51414.44
2022-09-05T22:58:12.582Z,51408.47
2022-09-05T23:00:41.319Z,51444.25
2022-09-05T23:03:08.477Z,51422.38
2022-09-05T23:05:36.049Z,51410.44
2022-09-05T23:08:05.968Z,51388.59
2022-09-05T23:10:34.425Z,51382.63
2022-09-05T23:13:08.762Z,51410.44
2022-09-05T23:15:37.181Z,51410.44
2022-09-05T23:18:05.226Z,51442.25
2022-09-05T23:20:33.708Z,51414.44
2022-09-05T23:23:05.399Z,51418.41
2022-09-05T23:25:34.092Z,51394.53
2022-09-05T23:28:09.615Z,51406.47
2022-09-05T23:30:37.770Z,51396.53
2022-09-05T23:33:09.749Z,51392.56
2022-09-05T23:35:37.694Z,51400.50
2022-09-05T23:38:10.519Z,51430.34
2022-09-05T23:40:38.940Z,51422.38
2022-09-05T23:43:07.876Z,51408.47
2022-09-05T23:45:35.274Z,51404.50
2022-09-05T23:48:02.978Z,51444.25
2022-09-05T23:50:30.091Z,51400.50
2022-09-05T23:53:03.690Z,51422.38
2022-09-05T23:55:32.291Z,51404.50
2022-09-05T23:57:59.723Z,51388.59
